Latest Coastal Weather Observations for Stenhouse Bay

IDS60701

Issued at 1:11 am CST Monday 24 April 2017 (issued every 10 minutes, with the page automatically refreshed every 10 minutes)

About coastal observations | Map of coastal stations | Coastal observations for SA | Marine services | Other Formats
Station Details ID: 022049 Name: STENHOUSE BAY Lat: -35.28 Lon: 136.94 Height: 42.0 m
Data from the previous 72 hours. | See also: Recent months at Stenhouse Bay
Date/Time
CST
Temp
°C
Wind Pressure Rain since
9am
mm
Weather Cloud Vis
km
Sea
Height
m
Swell
Dir  Spd
kts
Gust
kts
hPa Trend Height
m
Period
s
Dir
24/01:00am 18.1 E 8 11 1018.7 - 0.0 - - - - - - -
24/12:30am 18.1 E 8 10 1019.4 - 0.0 - - - - - - -
24/12:00am 18.1 E 7 9 1019.9 - 0.0 - - - - - - -
 
Date/Time
CST
Temp
°C
Wind Pressure Rain since
9am
mm
Weather Cloud Vis
km
Sea
Height
m
Swell
Dir  Spd
kts
Gust
kts
hPa Trend Height
m
Period
s
Dir
23/11:30pm 17.9 ESE 6 9 1020.0 - 0.0 - - - - - - -
23/11:00pm 18.1 ESE 8 10 1020.3 - 0.0 - - - - - - -
23/10:30pm 18.1 ESE 7 9 1020.5 - 0.0 - - - - - - -
23/10:00pm 18.2 ESE 8 10 1020.8 - 0.0 - - - - - - -
23/09:30pm 18.3 ESE 9 11 1020.6 - 0.0 - - - - - - -
23/09:00pm 18.4 ESE 8 11 1020.5 - 0.0 - - - - - - -
23/08:30pm 18.4 E 9 12 1020.4 - 0.0 - - - - - - -
23/08:00pm 18.3 E 12 15 1020.3 - 0.0 - - - - - - -
23/07:30pm 18.3 E 13 16 1020.2 - 0.0 - - - - - - -
23/07:00pm 18.4 E 13 17 1020.2 - 0.0 - - - - - - -
23/06:30pm 18.4 E 12 15 1020.0 - 0.0 - - - - - - -
23/06:00pm 18.3 E 12 15 1019.9 - 0.0 - - - - - - -
23/05:30pm 18.6 E 10 13 1019.9 - 0.0 - - - - - - -
23/05:00pm 18.8 E 10 12 1019.9 - 0.0 - - - - - - -
23/04:30pm 19.4 E 10 12 1020.0 - 0.0 - - - - - - -
23/04:00pm 19.8 ESE 9 11 1020.1 - 0.0 - - - - - - -
23/03:30pm 20.7 ESE 9 12 1020.2 - 0.0 - - - - - - -
23/03:00pm 21.4 E 9 11 1020.2 - 0.0 - - - - - - -
23/02:30pm 20.6 E 8 11 1020.2 - 0.0 - - - - - - -
23/02:00pm 21.0 E 9 12 1020.4 - 0.0 - - - - - - -
23/01:30pm 20.9 E 10 13 1020.5 - 0.0 - - - - - - -
23/01:00pm 20.3 E 10 12 1021.0 - 0.0 - - - - - - -
23/12:30pm 20.3 E 11 13 1021.3 - 0.0 - - - - - - -
23/12:00pm 20.1 E 10 13 1021.9 - 0.0 - - - - - - -
23/11:30am 19.9 E 10 13 1022.2 - 0.0 - - - - - - -
23/11:00am 19.5 E 11 13 1022.5 - 0.0 - - - - - - -
23/10:30am 18.5 E 12 15 1022.6 - 0.0 - - - - - - -
23/10:00am 18.4 ESE 12 15 1022.6 - 0.0 - - - - - - -
23/09:30am 18.5 ESE 10 14 1022.9 - 0.0 - - - - - - -
23/09:00am 18.3 ESE 11 15 1022.9 - 0.0 - - - - - - -
23/08:30am 17.9 ESE 11 14 1022.8 - 0.0 - - - - - - -
23/08:00am 17.7 ESE 11 14 1022.5 - 0.0 - - - - - - -
23/07:30am 17.5 SE 10 12 1022.5 - 0.0 - - - - - - -
23/07:00am 17.5 SE 9 12 1022.3 - 0.0 - - - - - - -
23/06:30am 17.4 ESE 10 13 1022.1 - 0.0 - - - - - - -
23/06:00am 17.5 ESE 10 11 1022.1 - 0.0 - - - - - - -
23/05:30am 17.5 ESE 9 11 1021.9 - 0.0 - - - - - - -
23/05:00am 17.7 ESE 9 11 1021.6 - 0.0 - - - - - - -
23/04:30am 17.5 ESE 10 12 1021.4 - 0.0 - - - - - - -
23/04:00am 17.6 ESE 9 12 1021.4 - 0.0 - - - - - - -
23/03:30am 17.3 ESE 12 15 1021.1 - 0.0 - - - - - - -
23/03:00am 17.1 ESE 13 16 1021.2 - 0.0 - - - - - - -
23/02:30am 17.1 ESE 12 15 1021.6 - 0.0 - - - - - - -
23/02:00am 17.2 ESE 13 17 1021.9 - 0.0 - - - - - - -
23/01:30am 17.1 ESE 13 17 1022.0 - 0.0 - - - - - - -
23/01:00am 17.1 ESE 13 17 1022.3 - 0.0 - - - - - - -
23/12:30am 17.2 ESE 13 17 1022.6 - 0.0 - - - - - - -
23/12:00am 17.2 ESE 15 20 1022.8 - 0.0 - - - - - - -
 
Date/Time
CST
Temp
°C
Wind Pressure Rain since
9am
mm
Weather Cloud Vis
km
Sea
Height
m
Swell
Dir  Spd
kts
Gust
kts
hPa Trend Height
m
Period
s
Dir
22/11:30pm 17.1 ESE 15 19 1023.0 - 0.0 - - - - - - -
22/11:00pm 17.1 ESE 16 19 1023.0 - 0.0 - - - - - - -
22/10:30pm 17.2 SE 14 18 1023.2 - 0.0 - - - - - - -
22/10:00pm 17.2 SE 15 18 1023.2 - 0.0 - - - - - - -
22/09:30pm 17.2 SE 14 18 1023.2 - 0.0 - - - - - - -
22/09:00pm 17.3 SE 14 18 1023.1 - 0.0 - - - - - - -
22/08:30pm 17.3 SE 12 17 1022.9 - 0.0 - - - - - - -
22/08:00pm 17.4 SE 12 17 1022.4 - 0.0 - - - - - - -
22/07:30pm 17.7 SE 13 16 1022.4 - 0.0 - - - - - - -
22/07:00pm 18.1 ESE 12 15 1022.2 - 0.0 - - - - - - -
22/06:30pm 18.2 ESE 11 14 1021.9 - 0.0 - - - - - - -
22/06:00pm 18.2 ESE 9 14 1021.7 - 0.0 - - - - - - -
22/05:30pm 18.7 ESE 8 10 1021.6 - 0.0 - - - - - - -
22/05:00pm 19.2 ESE 8 11 1021.4 - 0.0 - - - - - - -
22/04:30pm 19.9 SE 7 9 1021.6 - 0.0 - - - - - - -
22/04:00pm 20.7 ESE 6 8 1021.6 - 0.0 - - - - - - -
22/03:30pm 20.4 SE 7 8 1021.6 - 0.0 - - - - - - -
22/03:00pm 20.6 SE 6 7 1021.5 - 0.0 - - - - - - -
22/02:30pm 20.5 ESE 5 7 1021.6 - 0.0 - - - - - - -
22/02:00pm 21.3 SE 5 6 1021.7 - 0.0 - - - - - - -
22/01:30pm 20.4 SE 5 7 1021.9 - 0.0 - - - - - - -
22/01:00pm 20.2 SE 5 7 1022.2 - 0.0 - - - - - - -
22/12:30pm 20.6 SE 5 7 1022.5 - 0.0 - - - - - - -
22/12:00pm 19.7 SE 5 6 1023.1 - 0.0 - - - - - - -
22/11:30am 19.8 SE 5 6 1023.4 - 0.0 - - - - - - -
22/11:00am 19.9 SE 5 7 1023.6 - 0.0 - - - - - - -
22/10:30am 19.9 SSE 5 7 1023.7 - 0.0 - - - - - - -
22/10:00am 19.4 SE 4 6 1023.9 - 0.0 - - - - - - -
22/09:30am 19.4 SE 6 8 1023.9 - 0.0 - - - - - - -
22/09:00am 18.8 SSE 6 8 1023.9 - 0.0 - - - - - - -
22/08:30am 19.3 ESE 5 7 1023.8 - 0.0 - - - - - - -
22/08:00am 18.2 SE 5 7 1023.4 - 0.0 - - - - - - -
22/07:30am 17.5 SE 6 8 1023.0 - 0.0 - - - - - - -
22/07:00am 17.1 SE 6 8 1022.8 - 0.0 - - - - - - -
22/06:30am 16.9 SE 6 8 1022.5 - 0.0 - - - - - - -
22/06:00am 16.6 ESE 6 7 1022.2 - 0.0 - - - - - - -
22/05:30am 16.7 SE 6 8 1022.1 - 0.0 - - - - - - -
22/05:00am 16.8 SE 5 6 1022.0 - 0.0 - - - - - - -
22/04:30am 16.8 SE 5 6 1022.0 - 0.0 - - - - - - -
22/04:00am 16.8 SE 4 6 1022.0 - 0.0 - - - - - - -
22/03:30am 17.1 SSE 7 8 1021.9 - 0.0 - - - - - - -
22/03:00am 17.0 SSE 6 8 1022.1 - 0.0 - - - - - - -
22/02:30am 16.8 SSE 7 9 1022.2 - 0.0 - - - - - - -
22/02:00am 16.9 SSE 8 9 1022.3 - 0.0 - - - - - - -
22/01:30am 16.8 SE 6 8 1022.4 - 0.0 - - - - - - -
22/01:00am 16.7 SE 4 5 1022.4 - 0.0 - - - - - - -
22/12:30am 16.7 SSE 4 5 1022.5 - 0.0 - - - - - - -
22/12:00am 17.1 S 6 8 1022.5 - 0.0 - - - - - - -
 
Date/Time
CST
Temp
°C
Wind Pressure Rain since
9am
mm
Weather Cloud Vis
km
Sea
Height
m
Swell
Dir  Spd
kts
Gust
kts
hPa Trend Height
m
Period
s
Dir
21/11:30pm 16.9 SSE 4 5 1022.7 - 0.0 - - - - - - -
21/11:00pm 17.0 SSE 7 8 1022.8 - 0.0 - - - - - - -
21/10:30pm 17.0 SSE 5 8 1023.0 - 0.0 - - - - - - -
21/10:00pm 17.3 SSE 6 8 1023.0 - 0.0 - - - - - - -
21/09:30pm 17.4 SE 7 9 1022.9 - 0.0 - - - - - - -
21/09:00pm 17.5 SE 6 8 1022.8 - 0.0 - - - - - - -
21/08:30pm 17.6 SSE 8 11 1022.4 - 0.0 - - - - - - -
21/08:00pm 18.0 SSE 8 11 1022.2 - 0.0 - - - - - - -
21/07:30pm 18.2 SSE 10 13 1021.9 - 0.0 - - - - - - -
21/07:00pm 18.5 SSE 11 13 1021.6 - 0.0 - - - - - - -
21/06:30pm 18.3 SSE 11 15 1021.0 - 0.0 - - - - - - -
21/06:00pm 17.9 SW 8 11 1020.8 - 0.0 - - - - - - -
21/05:30pm 18.2 SW 11 13 1020.7 - 0.0 - - - - - - -
21/05:00pm 18.8 SW 9 13 1020.7 - 0.0 - - - - - - -
21/04:30pm 19.0 WSW 8 12 1020.8 - 0.0 - - - - - - -
21/04:00pm 20.4 WSW 8 11 1020.6 - 0.0 - - - - - - -
21/03:30pm 20.4 SW 7 9 1020.5 - 0.0 - - - - - - -
21/03:00pm 20.4 SW 9 12 1020.5 - 0.0 - - - - - - -
21/02:30pm 20.7 SW 7 10 1020.6 - 0.0 - - - - - - -
21/02:00pm 20.7 SW 7 10 1020.7 - 0.0 - - - - - - -
21/01:30pm 20.7 SW 5 7 1020.8 - 0.0 - - - - - - -
21/01:00pm 20.3 SSW 5 7 1021.1 - 0.0 - - - - - - -
21/12:30pm 20.1 S 5 7 1021.5 - 0.0 - - - - - - -
21/12:00pm 19.2 S 5 6 1021.7 - 0.0 - - - - - - -
21/11:30am 20.1 SSW 6 8 1022.0 - 0.0 - - - - - - -
21/11:00am 19.5 SSW 5 6 1022.1 - 0.0 - - - - - - -
21/10:30am 19.5 S 4 6 1022.2 - 0.0 - - - - - - -
21/10:00am 18.7 SSW 4 6 1022.3 - 0.0 - - - - - - -
21/09:30am 18.6 SSW 5 7 1022.4 - 0.0 - - - - - - -
21/09:00am 18.5 SSW 4 6 1022.4 - 0.2 - - - - - - -
21/08:30am 17.9 SSW 5 8 1022.1 - 0.2 - - - - - - -
21/08:00am 17.5 SW 5 8 1021.9 - 0.2 - - - - - - -
21/07:30am 17.1 SSW 5 7 1021.6 - 0.2 - - - - - - -
21/07:00am 17.2 SW 5 9 1021.3 - 0.2 - - - - - - -
21/06:30am 17.0 SW 8 10 1020.9 - 0.2 - - - - - - -
21/06:00am 17.2 SSW 8 11 1020.3 - 0.2 - - - - - - -
21/05:30am 17.4 SW 7 11 1020.0 - 0.2 - - - - - - -
21/05:00am 17.4 SW 8 10 1019.7 - 0.2 - - - - - - -
21/04:30am 17.4 SW 9 12 1019.6 - 0.2 - - - - - - -
21/04:00am 17.4 WSW 6 9 1019.5 - 0.2 - - - - - - -
21/03:30am 17.4 WSW 4 6 1019.6 - 0.2 - - - - - - -
21/03:00am 17.3 SW 4 5 1019.7 - 0.2 - - - - - - -
21/02:30am 17.3 SW 5 7 1019.8 - 0.2 - - - - - - -
21/02:00am 17.1 WSW 4 5 1019.9 - 0.2 - - - - - - -
21/01:30am 17.1 WSW 3 4 1019.9 - 0.2 - - - - - - -

Other Formats:

Comma delimited format used in spreadsheet applications
http://www.bom.gov.au/fwo/IDS60701/IDS60701.95806.axf

JavaScript Object Notation format (JSON) in row-major order
http://www.bom.gov.au/fwo/IDS60701/IDS60701.95806.json